Time;durP1;ratioP1;P1;durP2;ratioP2;P2;SDS_P1;SDS_P2;PMS_P1;PMS_P2;Temp;Humidity;BMP_temperature;BMP_pressure;BME280_temperature;BME280_humidity;BME280_pressure;Samples;Min_cycle;Max_cycle;Signal;HPM_P1;HPM_P2
2021/07/15 00:00:31;;;;;;;1.80;1.70;;;;;;;22.33;100.00;97115.34;4992015;28;20230;-66
2021/07/15 00:03:04;;;;;;;1.97;1.70;;;;;;;21.22;100.00;96927.13;4997674;28;20198;-67
2021/07/15 00:05:31;;;;;;;2.00;1.60;;;;;;;22.21;100.00;97089.50;5002776;28;20600;-66
2021/07/15 00:07:58;;;;;;;3.23;1.60;;;;;;;22.33;100.00;97103.41;4995180;28;20636;-66
2021/07/15 00:10:34;;;;;;;1.70;1.60;;;;;;;22.33;100.00;97105.97;4998609;28;20774;-65
2021/07/15 00:13:01;;;;;;;1.97;1.40;;;;;;;22.05;100.00;97056.75;4991941;28;20638;-68
2021/07/15 00:15:28;;;;;;;2.40;1.70;;;;;;;21.89;100.00;97024.88;4997296;28;20230;-66
2021/07/15 00:17:56;;;;;;;1.60;1.50;;;;;;;22.33;100.00;97105.97;4981677;28;20585;-66
2021/07/15 00:20:22;;;;;;;1.70;1.60;;;;;;;22.34;100.00;97100.00;4995396;28;20321;-65
2021/07/15 00:22:49;;;;;;;1.50;1.40;;;;;;;22.34;100.00;97101.69;4989882;28;20632;-65
2021/07/15 00:25:19;;;;;;;1.70;1.60;;;;;;;21.35;100.00;96936.78;4998974;28;20248;-67
2021/07/15 00:27:45;;;;;;;2.43;1.70;;;;;;;22.32;100.00;97106.78;5001901;28;20642;-66
2021/07/15 00:30:12;;;;;;;1.60;1.50;;;;;;;21.88;100.00;97027.41;4999750;28;20330;-66
2021/07/15 00:32:39;;;;;;;1.93;1.60;;;;;;;21.84;100.00;97023.06;4998276;28;20237;-67
2021/07/15 00:35:07;;;;;;;1.70;1.60;;;;;;;22.31;100.00;97107.63;4978715;28;20286;-66
2021/07/15 00:37:34;;;;;;;1.80;1.70;;;;;;;22.31;100.00;97104.19;4980354;28;20284;-67
2021/07/15 00:40:01;;;;;;;2.00;1.80;;;;;;;22.31;100.00;97105.06;4973653;28;20306;-66
2021/07/15 00:42:27;;;;;;;1.80;1.60;;;;;;;22.32;100.00;97105.94;4976717;28;20299;-65
2021/07/15 00:44:54;;;;;;;1.40;1.30;;;;;;;22.30;100.00;97097.34;4996231;28;20245;-68
2021/07/15 00:47:20;;;;;;;1.97;1.77;;;;;;;22.24;100.00;97085.31;4995878;28;20747;-66
2021/07/15 00:49:47;;;;;;;1.43;1.33;;;;;;;21.38;100.00;96937.69;4996160;28;20207;-65
2021/07/15 00:52:14;;;;;;;1.50;1.40;;;;;;;22.32;100.00;97093.13;4989228;28;20239;-66
2021/07/15 00:54:41;;;;;;;1.70;1.60;;;;;;;22.31;100.00;97087.13;4978638;28;20313;-64
2021/07/15 00:57:08;;;;;;;1.60;1.50;;;;;;;22.31;100.00;97096.50;4980234;28;20288;-65
2021/07/15 00:59:35;;;;;;;1.87;1.70;;;;;;;22.30;100.00;97093.09;4984551;28;20944;-66
2021/07/15 01:02:02;;;;;;;1.80;1.70;;;;;;;21.90;100.00;97031.72;4941548;28;20227;-66
2021/07/15 01:04:29;;;;;;;1.63;1.53;;;;;;;22.32;100.00;97095.69;4969171;28;20207;-67
2021/07/15 01:06:55;;;;;;;1.87;1.70;;;;;;;22.03;100.00;97064.41;4979299;28;20234;-66
2021/07/15 01:09:22;;;;;;;2.83;1.40;;;;;;;22.31;100.00;97099.06;4978190;28;20239;-66
2021/07/15 01:11:51;;;;;;;1.60;1.50;;;;;;;22.31;100.00;97099.94;4947241;28;20231;-66
2021/07/15 01:14:27;;;;;;;1.70;1.60;;;;;;;22.32;100.00;97105.94;4990061;28;20235;-67
2021/07/15 01:17:04;;;;;;;1.73;1.63;;;;;;;22.31;100.00;97110.19;4978160;28;20238;-66
2021/07/15 01:19:37;;;;;;;1.50;1.40;;;;;;;22.31;100.00;97109.31;4972364;28;20302;-67
2021/07/15 01:22:05;;;;;;;1.67;1.57;;;;;;;22.31;100.00;97110.19;4990992;28;20321;-65
2021/07/15 01:24:50;;;;;;;1.53;1.43;;;;;;;22.31;100.00;97110.19;4997805;28;20235;-66
2021/07/15 01:27:29;;;;;;;2.80;1.83;;;;;;;22.31;100.00;97105.06;4991980;28;20298;-66
2021/07/15 01:30:14;;;;;;;2.17;1.70;;;;;;;22.31;100.00;97111.88;4972627;28;20237;-67
2021/07/15 01:33:00;;;;;;;1.53;1.43;;;;;;;22.30;100.00;97108.47;4981636;28;20234;-65
2021/07/15 01:35:29;;;;;;;1.60;1.50;;;;;;;22.31;100.00;97120.41;4998289;28;20235;-66
2021/07/15 01:37:58;;;;;;;2.30;1.47;;;;;;;22.31;100.00;97120.41;4991091;28;20673;-66
2021/07/15 01:40:28;;;;;;;1.60;1.50;;;;;;;22.26;100.00;97105.81;4977296;28;20309;-67
2021/07/15 01:43:04;;;;;;;1.60;1.50;;;;;;;22.31;100.00;97119.53;4953628;28;20230;-66
2021/07/15 01:45:31;;;;;;;1.60;1.50;;;;;;;22.31;100.00;97120.41;4981125;28;20988;-66
2021/07/15 01:47:57;;;;;;;1.40;1.30;;;;;;;22.19;100.00;97091.16;4964601;28;20210;-66
2021/07/15 01:52:52;;;;;;;2.33;1.60;;;;;;;22.30;100.00;97118.69;5014311;28;20248;-70
2021/07/15 01:55:19;;;;;;;1.50;1.40;;;;;;;22.31;100.00;97120.41;5003165;28;20254;-70
2021/07/15 01:57:45;;;;;;;1.77;1.63;;;;;;;22.28;100.00;97114.38;5027362;28;20308;-69
2021/07/15 02:00:12;;;;;;;1.70;1.60;;;;;;;22.12;100.00;97089.31;4988787;28;20292;-68
2021/07/15 02:02:39;;;;;;;1.50;1.40;;;;;;;22.04;100.00;97068.69;5008219;28;20263;-69
2021/07/15 02:05:07;;;;;;;1.57;1.47;;;;;;;22.32;100.00;97113.63;5007251;28;20209;-68
2021/07/15 02:07:34;;;;;;;1.63;1.53;;;;;;;22.02;100.00;97064.38;5012676;28;20207;-70
2021/07/15 02:10:01;;;;;;;1.63;1.50;;;;;;;22.32;100.00;97106.78;5008220;28;20322;-69
2021/07/15 02:12:28;;;;;;;1.60;1.50;;;;;;;21.95;100.00;97047.16;4999996;28;20221;-71
2021/07/15 02:14:54;;;;;;;1.63;1.50;;;;;;;22.07;100.00;97070.44;4998039;28;20248;-68
2021/07/15 02:17:21;;;;;;;1.57;1.47;;;;;;;22.13;100.00;97075.66;5009183;28;20683;-70
2021/07/15 02:19:48;;;;;;;6.30;1.50;;;;;;;22.23;100.00;97082.72;5006542;28;20205;-71
2021/07/15 02:22:15;;;;;;;1.60;1.50;;;;;;;22.15;100.00;97069.78;5021274;28;20759;-71
2021/07/15 02:24:41;;;;;;;1.50;1.40;;;;;;;22.31;100.00;97094.81;5009752;28;20226;-68
2021/07/15 02:27:08;;;;;;;1.50;1.40;;;;;;;22.30;100.00;97098.22;5005390;28;20635;-68
2021/07/15 02:29:36;;;;;;;1.60;1.40;;;;;;;22.03;100.00;97060.97;5009015;28;20233;-71
2021/07/15 02:32:07;;;;;;;1.30;1.20;;;;;;;22.01;100.00;97053.28;5024251;28;20217;-68
2021/07/15 02:34:45;;;;;;;1.50;1.40;;;;;;;22.24;100.00;97084.44;5018954;28;20229;-69
2021/07/15 02:37:11;;;;;;;3.23;1.50;;;;;;;22.08;100.00;97059.38;5025212;28;20659;-70
2021/07/15 02:39:38;;;;;;;2.10;1.30;;;;;;;22.29;100.00;97098.19;5030860;28;20244;-70
2021/07/15 02:42:05;;;;;;;1.73;1.33;;;;;;;20.80;100.00;96855.53;5030640;28;20746;-68
2021/07/15 02:44:31;;;;;;;1.60;1.50;;;;;;;22.29;100.00;97095.63;5029632;28;20224;-71
2021/07/15 02:46:58;;;;;;;1.50;1.40;;;;;;;22.27;100.00;97100.72;5032232;28;20751;-73
2021/07/15 02:49:24;;;;;;;1.47;1.37;;;;;;;22.28;100.00;97096.44;5028163;28;20268;-69
2021/07/15 02:51:51;;;;;;;1.50;1.40;;;;;;;22.04;100.00;97058.44;5031152;28;20692;-71
2021/07/15 02:54:19;;;;;;;1.43;1.33;;;;;;;22.03;100.00;97050.75;5027226;28;20227;-72
2021/07/15 02:57:10;;;;;;;1.40;1.20;;;;;;;22.16;100.00;97079.16;5028686;28;20780;-68
2021/07/15 03:00:02;;;;;;;1.53;1.37;;;;;;;21.19;100.00;96917.72;5021632;28;20634;-69
2021/07/15 03:02:49;;;;;;;1.60;1.50;;;;;;;21.34;100.00;96951.25;5022597;28;20359;-69
2021/07/15 03:05:18;;;;;;;1.40;1.30;;;;;;;22.29;100.00;97108.44;5012994;28;20314;-74
2021/07/15 03:07:56;;;;;;;1.70;1.60;;;;;;;22.29;100.00;97116.13;5023911;28;20238;-70
2021/07/15 03:10:23;;;;;;;1.50;1.40;;;;;;;22.29;100.00;97121.25;5023896;28;20232;-65
2021/07/15 03:12:50;;;;;;;1.40;1.30;;;;;;;21.88;100.00;97045.31;5020838;28;20292;-73
2021/07/15 03:15:17;;;;;;;1.37;1.30;;;;;;;22.28;100.00;97110.13;5023435;28;20224;-69
2021/07/15 03:17:48;;;;;;;1.27;1.17;;;;;;;21.80;100.00;97036.63;5002107;28;20237;-68
2021/07/15 03:20:29;;;;;;;1.37;1.30;;;;;;;22.28;100.00;97116.94;5038079;28;20669;-68
2021/07/15 03:22:59;;;;;;;1.60;1.50;;;;;;;22.23;100.00;97124.50;5038925;28;20894;-71
2021/07/15 03:25:25;;;;;;;1.60;1.50;;;;;;;22.13;100.00;97120.06;5037634;28;20238;-69
2021/07/15 03:27:52;;;;;;;1.27;1.20;;;;;;;22.28;100.00;97140.84;5038757;28;20618;-69
2021/07/15 03:30:19;;;;;;;1.50;1.40;;;;;;;21.39;100.00;96990.56;5021283;28;20252;-73
2021/07/15 03:32:46;;;;;;;4.13;1.83;;;;;;;21.94;100.00;97077.03;5040243;28;20224;-68
2021/07/15 03:35:13;;;;;;;1.50;1.40;;;;;;;22.18;100.00;97126.13;5020150;28;20264;-67
2021/07/15 03:37:44;;;;;;;1.37;1.27;;;;;;;22.28;100.00;97143.41;5022167;28;20218;-69
2021/07/15 03:40:16;;;;;;;1.50;1.40;;;;;;;22.15;100.00;97122.66;5041472;28;20209;-74
2021/07/15 03:42:44;;;;;;;2.43;1.40;;;;;;;22.29;100.00;97144.28;5019338;28;20286;-66
2021/07/15 03:45:16;;;;;;;2.03;1.30;;;;;;;22.13;100.00;97120.06;5022412;28;20646;-68
2021/07/15 03:47:52;;;;;;;1.57;1.47;;;;;;;22.19;100.00;97127.84;5035714;28;20212;-66
2021/07/15 03:50:27;;;;;;;1.13;1.13;;;;;;;21.88;100.00;97079.44;5040033;28;20209;-68
2021/07/15 03:52:57;;;;;;;1.30;1.20;;;;;;;22.29;100.00;97137.44;5007054;28;20260;-67
2021/07/15 03:55:25;;;;;;;1.57;1.47;;;;;;;21.90;100.00;97067.53;5035752;28;20742;-68
2021/07/15 03:57:52;;;;;;;1.40;1.30;;;;;;;22.29;100.00;97139.16;5033688;28;20288;-68
2021/07/15 04:00:23;;;;;;;1.50;1.40;;;;;;;22.06;100.00;97086.63;5013554;28;20240;-68
2021/07/15 04:02:51;;;;;;;1.50;1.40;;;;;;;22.28;100.00;97140.84;5007934;28;20726;-70
2021/07/15 04:05:19;;;;;;;1.30;1.20;;;;;;;21.50;100.00;97019.75;5011895;28;20305;-70
2021/07/15 04:07:46;;;;;;;1.73;1.30;;;;;;;22.28;100.00;97137.41;5034429;28;20674;-68
2021/07/15 04:10:12;;;;;;;1.50;1.40;;;;;;;22.23;100.00;97137.31;5020908;28;20655;-65
2021/07/15 04:12:39;;;;;;;1.50;1.40;;;;;;;22.29;100.00;97146.84;5038197;28;20312;-72
2021/07/15 04:15:11;;;;;;;1.50;1.40;;;;;;;21.90;100.00;97082.03;5024671;28;20315;-67
2021/07/15 04:17:57;;;;;;;1.80;1.37;;;;;;;22.02;100.00;97098.50;5021756;28;20288;-71
2021/07/15 04:20:25;;;;;;;1.33;1.23;;;;;;;22.10;100.00;97114.88;5024546;28;20669;-69
2021/07/15 04:22:53;;;;;;;1.50;1.20;;;;;;;21.40;100.00;96993.97;5041189;28;20292;-69
2021/07/15 04:25:21;;;;;;;1.30;1.20;;;;;;;22.03;100.00;97094.25;5009140;28;20288;-73
2021/07/15 04:27:49;;;;;;;1.10;1.10;;;;;;;21.61;100.00;97031.09;5021582;28;20205;-68
2021/07/15 04:30:16;;;;;;;1.60;1.50;;;;;;;22.29;100.00;97134.88;5037505;28;20217;-68
2021/07/15 04:32:47;;;;;;;1.50;1.40;;;;;;;22.25;100.00;97132.22;5029401;28;20329;-66
2021/07/15 04:35:14;;;;;;;1.40;1.30;;;;;;;22.18;100.00;97115.91;5029230;28;20316;-66
2021/07/15 04:37:41;;;;;;;1.40;1.30;;;;;;;22.19;100.00;97119.31;5024972;28;20224;-68
2021/07/15 04:40:09;;;;;;;1.30;1.20;;;;;;;22.28;100.00;97135.72;5037596;28;20249;-68
2021/07/15 04:42:39;;;;;;;1.33;1.30;;;;;;;22.18;100.00;97115.03;5025917;28;20249;-70
2021/07/15 04:45:10;;;;;;;1.30;1.20;;;;;;;22.11;100.00;97105.50;5006291;28;20249;-70
2021/07/15 04:47:39;;;;;;;1.40;1.30;;;;;;;22.22;100.00;97124.47;5010686;28;20837;-69
2021/07/15 04:50:18;;;;;;;1.57;1.47;;;;;;;22.24;100.00;97131.38;5026838;28;20299;-68
2021/07/15 04:52:47;;;;;;;1.40;1.30;;;;;;;22.27;100.00;97134.00;5025235;28;20848;-68
2021/07/15 04:55:14;;;;;;;1.40;1.30;;;;;;;22.15;100.00;97107.28;5014123;28;20292;-66
2021/07/15 04:57:40;;;;;;;1.63;1.30;;;;;;;22.28;100.00;97133.16;5016711;28;20242;-69
2021/07/15 05:00:11;;;;;;;1.60;1.50;;;;;;;22.24;100.00;97121.16;5019626;28;20210;-67
2021/07/15 05:02:38;;;;;;;1.30;1.20;;;;;;;22.05;100.00;97090.03;5021763;28;20304;-68
2021/07/15 05:05:09;;;;;;;1.10;1.10;;;;;;;22.23;100.00;97119.41;5008354;28;20245;-70
2021/07/15 05:07:36;;;;;;;1.20;1.20;;;;;;;22.12;100.00;97097.88;5010415;28;20301;-68
2021/07/15 05:10:07;;;;;;;1.37;1.23;;;;;;;21.99;100.00;97070.28;5006960;28;20226;-72
2021/07/15 05:12:33;;;;;;;7.10;1.40;;;;;;;22.09;100.00;97090.13;5015730;28;20308;-66
2021/07/15 05:15:01;;;;;;;1.40;1.30;;;;;;;22.19;100.00;97098.81;5025160;28;20233;-68
2021/07/15 05:17:28;;;;;;;1.20;1.20;;;;;;;22.22;100.00;97098.88;5010464;28;20202;-69
2021/07/15 05:19:55;;;;;;;1.40;1.30;;;;;;;22.13;100.00;97078.22;5033890;28;20262;-69
2021/07/15 05:22:22;;;;;;;1.40;1.30;;;;;;;22.07;100.00;97065.31;5022802;28;20250;-69
2021/07/15 05:24:48;;;;;;;1.40;1.23;;;;;;;22.30;100.00;97099.91;5012567;28;20302;-68
2021/07/15 05:27:15;;;;;;;2.10;1.20;;;;;;;21.98;100.00;97042.97;5024394;28;20201;-68
2021/07/15 05:29:41;;;;;;;1.13;1.10;;;;;;;22.30;100.00;97098.22;5005326;28;20202;-67
2021/07/15 05:32:08;;;;;;;1.13;1.10;;;;;;;22.22;100.00;97092.09;5025046;28;20652;-71
2021/07/15 05:34:35;;;;;;;1.47;1.37;;;;;;;22.24;100.00;97098.09;5027119;28;20233;-70
2021/07/15 05:37:02;;;;;;;1.43;1.33;;;;;;;21.37;100.00;96941.09;5025020;28;20253;-68
2021/07/15 05:39:29;;;;;;;1.07;1.07;;;;;;;22.16;100.00;97076.59;5025631;28;20313;-70
2021/07/15 05:41:55;;;;;;;1.37;1.33;;;;;;;22.21;100.00;97082.69;5028075;28;20243;-67
2021/07/15 05:44:23;;;;;;;1.30;1.17;;;;;;;22.31;100.00;97104.19;5030715;28;20206;-70
2021/07/15 05:46:49;;;;;;;1.50;1.40;;;;;;;22.26;100.00;97093.84;5033048;28;20232;-69
2021/07/15 05:49:35;;;;;;;1.13;1.13;;;;;;;22.23;100.00;97098.91;5024540;28;20736;-68
2021/07/15 05:52:05;;;;;;;1.20;1.20;;;;;;;22.19;100.00;97088.59;5009634;28;20328;-69
2021/07/15 05:54:32;;;;;;;1.20;1.20;;;;;;;22.20;100.00;97088.63;5029046;28;20232;-71
2021/07/15 05:56:58;;;;;;;1.17;1.17;;;;;;;22.30;100.00;97105.91;5017122;28;20272;-68
2021/07/15 05:59:25;;;;;;;1.47;1.13;;;;;;;21.87;100.00;97034.22;5035527;28;20841;-69
2021/07/15 06:01:52;;;;;;;1.20;1.20;;;;;;;21.98;100.00;97060.00;5038230;28;20247;-69
2021/07/15 06:04:19;;;;;;;1.10;1.10;;;;;;;22.30;100.00;97108.47;5006770;28;20627;-67
2021/07/15 06:06:46;;;;;;;1.23;1.13;;;;;;;22.22;100.00;97091.22;5025132;28;20300;-67
2021/07/15 06:09:12;;;;;;;1.30;1.20;;;;;;;22.31;100.00;97111.88;5023036;28;20319;-73
2021/07/15 06:11:39;;;;;;;1.23;1.17;;;;;;;22.22;100.00;97104.00;5024886;28;20257;-70
2021/07/15 06:14:06;;;;;;;1.53;1.37;;;;;;;22.31;100.00;97122.97;5034600;28;20725;-68
2021/07/15 06:16:32;;;;;;;1.40;1.30;;;;;;;22.32;100.00;97123.84;5035750;28;20286;-65
2021/07/15 06:18:59;;;;;;;1.40;1.23;;;;;;;22.32;100.00;97131.53;5028990;28;20207;-71
2021/07/15 06:21:26;;;;;;;1.33;1.23;;;;;;;22.23;100.00;97108.31;5037498;28;20225;-70
2021/07/15 06:23:52;;;;;;;1.20;1.20;;;;;;;22.32;100.00;97118.75;5020600;28;20314;-67
2021/07/15 06:26:19;;;;;;;1.10;1.10;;;;;;;22.31;100.00;97119.53;5036105;28;20224;-68
2021/07/15 06:28:46;;;;;;;1.00;1.00;;;;;;;22.23;100.00;97108.31;5035598;28;20232;-69
2021/07/15 06:31:12;;;;;;;1.40;1.30;;;;;;;22.28;100.00;97117.81;5020857;28;20307;-66
2021/07/15 06:33:39;;;;;;;1.20;1.20;;;;;;;22.23;100.00;97105.75;5031521;28;20636;-68
2021/07/15 06:36:06;;;;;;;1.40;1.30;;;;;;;21.44;100.00;96978.72;5034009;28;20244;-66
2021/07/15 06:38:35;;;;;;;1.10;1.10;;;;;;;22.33;100.00;97125.56;5011056;28;20234;-68
2021/07/15 06:41:09;;;;;;;1.10;1.10;;;;;;;22.24;100.00;97116.03;5013844;28;20233;-69
2021/07/15 06:43:37;;;;;;;1.27;1.20;;;;;;;22.31;100.00;97134.91;5019221;28;20243;-68
2021/07/15 06:46:04;;;;;;;1.23;1.13;;;;;;;22.23;100.00;97118.56;5024857;28;20210;-67
2021/07/15 06:48:31;;;;;;;1.23;1.13;;;;;;;22.22;100.00;97127.91;5029866;28;20236;-70
2021/07/15 06:51:02;;;;;;;1.27;1.17;;;;;;;22.27;100.00;97136.56;5016890;28;20228;-68
2021/07/15 06:53:28;;;;;;;1.67;1.20;;;;;;;22.26;100.00;97139.09;5037297;28;20288;-68
2021/07/15 06:55:55;;;;;;;2.53;1.13;;;;;;;21.99;100.00;97095.03;5035104;28;20305;-67
2021/07/15 06:58:22;;;;;;;5.30;1.17;;;;;;;22.22;100.00;97129.59;5030986;28;20279;-70
2021/07/15 07:00:48;;;;;;;1.40;1.10;;;;;;;22.28;100.00;97145.97;5028308;28;20825;-72
2021/07/15 07:03:15;;;;;;;3.20;1.30;;;;;;;22.29;100.00;97157.91;5009917;28;20984;-67
2021/07/15 07:05:42;;;;;;;2.47;1.27;;;;;;;22.22;100.00;97152.63;5024966;28;20233;-71
2021/07/15 07:08:08;;;;;;;1.50;1.20;;;;;;;22.30;100.00;97164.78;5007429;28;20257;-67
2021/07/15 07:10:35;;;;;;;2.47;1.20;;;;;;;22.13;100.00;97139.66;5027768;28;20285;-67
2021/07/15 07:13:02;;;;;;;3.33;1.23;;;;;;;22.30;100.00;97179.28;5005615;28;20207;-66
2021/07/15 07:15:28;;;;;;;1.20;1.10;;;;;;;22.22;100.00;97165.44;5029658;28;20204;-70
2021/07/15 07:17:55;;;;;;;1.27;1.17;;;;;;;22.26;100.00;97173.22;5025993;28;20253;-67
2021/07/15 07:20:21;;;;;;;7.23;1.50;;;;;;;22.30;100.00;97166.47;5029867;28;20321;-70
2021/07/15 07:22:49;;;;;;;8.20;1.40;;;;;;;22.30;100.00;97180.16;5035207;28;20285;-68
2021/07/15 07:25:16;;;;;;;3.33;1.50;;;;;;;22.22;100.00;97168.88;5030010;28;20206;-69
2021/07/15 07:27:43;;;;;;;10.20;1.47;;;;;;;22.32;100.00;97187.84;5019177;28;20263;-65
2021/07/15 07:30:13;;;;;;;1.40;1.30;;;;;;;22.32;100.00;97182.75;5022348;28;20660;-71
2021/07/15 07:32:40;;;;;;;3.80;1.20;;;;;;;22.29;100.00;97180.13;5032265;28;20244;-68
2021/07/15 07:35:07;;;;;;;2.33;1.20;;;;;;;22.01;100.00;97132.59;5018409;28;20233;-69
2021/07/15 07:37:34;;;;;;;5.80;1.67;;;;;;;22.16;100.00;97144.84;5026330;28;20255;-71
2021/07/15 07:40:01;;;;;;;3.53;1.70;;;;;;;22.30;100.00;97180.16;5043209;28;20372;-66
2021/07/15 07:42:28;;;;;;;2.47;2.27;;;;;;;22.33;100.00;97180.22;5041987;28;20299;-71
2021/07/15 07:44:54;;;;;;;4.00;2.70;;;;;;;22.34;100.00;97181.94;5031617;28;20248;-68
2021/07/15 07:47:21;;;;;;;4.80;3.03;;;;;;;22.25;98.82;97168.94;5026798;28;20221;-68
2021/07/15 07:49:47;;;;;;;3.50;3.20;;;;;;;22.32;98.40;97182.75;5024641;28;20948;-65
2021/07/15 07:52:14;;;;;;;3.13;2.60;;;;;;;22.37;98.77;97188.78;5043821;28;20694;-67
2021/07/15 07:54:41;;;;;;;3.03;2.60;;;;;;;22.38;98.83;97183.72;5030389;28;20206;-70
2021/07/15 07:57:09;;;;;;;3.77;2.13;;;;;;;22.29;99.01;97175.84;5035473;28;20284;-70
2021/07/15 07:59:37;;;;;;;2.43;2.20;;;;;;;22.31;98.96;97173.31;5030907;28;20200;-68
2021/07/15 08:02:03;;;;;;;1.90;1.80;;;;;;;22.39;98.90;97185.47;5022705;28;20698;-69
2021/07/15 08:04:30;;;;;;;2.60;1.50;;;;;;;22.39;98.43;97182.03;5030351;28;20237;-68
2021/07/15 08:06:57;;;;;;;2.37;1.33;;;;;;;22.39;97.57;97182.03;5034560;28;20223;-69
2021/07/15 08:09:25;;;;;;;1.97;1.30;;;;;;;22.40;97.06;97196.53;5037677;28;20216;-69
2021/07/15 08:11:54;;;;;;;1.20;1.10;;;;;;;22.30;96.54;97184.38;5022877;28;20276;-68
2021/07/15 08:14:24;;;;;;;1.30;1.20;;;;;;;22.25;96.38;97171.50;5033933;28;20228;-67
2021/07/15 08:16:51;;;;;;;1.23;1.07;;;;;;;22.25;96.00;97176.63;5033425;28;20214;-69
2021/07/15 08:19:20;;;;;;;1.60;1.10;;;;;;;22.12;95.92;97153.28;5025100;28;20280;-70
2021/07/15 08:21:47;;;;;;;3.03;1.07;;;;;;;22.37;95.95;97201.59;5039569;28;20727;-70
2021/07/15 08:24:13;;;;;;;1.53;1.30;;;;;;;22.30;96.07;97192.06;5026400;28;20198;-67
2021/07/15 08:26:40;;;;;;;1.50;1.30;;;;;;;22.37;95.94;97209.28;5013319;28;20489;-68
2021/07/15 08:29:06;;;;;;;2.43;1.27;;;;;;;22.31;95.87;97193.78;5037897;28;20678;-72
2021/07/15 08:31:33;;;;;;;1.60;1.50;;;;;;;22.28;95.97;97202.28;5038119;28;20347;-68
2021/07/15 08:34:00;;;;;;;1.73;1.63;;;;;;;22.35;96.72;97205.84;5013349;28;20582;-68
2021/07/15 08:36:28;;;;;;;1.60;1.50;;;;;;;22.36;96.45;97207.56;5029203;28;20560;-68
2021/07/15 08:38:55;;;;;;;1.50;1.40;;;;;;;22.27;96.89;97192.00;5033179;28;20760;-68
2021/07/15 08:41:21;;;;;;;1.97;1.30;;;;;;;22.30;97.24;97202.31;5036844;28;20737;-73
2021/07/15 08:43:48;;;;;;;1.20;1.10;;;;;;;22.21;96.99;97173.97;5034555;28;20215;-68
2021/07/15 08:46:15;;;;;;;1.67;1.17;;;;;;;22.35;97.81;97204.13;5017327;28;20268;-69
2021/07/15 08:48:44;;;;;;;1.60;1.23;;;;;;;22.17;98.10;97172.19;5018304;28;20239;-67
2021/07/15 08:51:10;;;;;;;1.23;1.20;;;;;;;22.33;97.82;97203.25;5037422;28;20278;-69
2021/07/15 08:53:37;;;;;;;1.40;1.30;;;;;;;22.17;97.52;97174.75;5035223;28;21063;-68
2021/07/15 08:58:49;;;;;;;1.47;1.10;;;;;;;22.27;97.20;97197.13;5034704;28;20236;-65
2021/07/15 09:01:16;;;;;;;1.20;1.10;;;;;;;22.28;97.14;97198.84;5033390;28;20226;-71
2021/07/15 09:03:43;;;;;;;2.83;1.27;;;;;;;22.14;97.40;97172.13;5021727;28;20202;-65
2021/07/15 09:06:09;;;;;;;1.13;1.00;;;;;;;21.80;97.06;97113.34;5026019;28;20307;-71
2021/07/15 09:08:36;;;;;;;2.13;1.20;;;;;;;22.17;96.77;97182.41;5016977;28;20252;-69
2021/07/15 09:11:03;;;;;;;1.10;1.10;;;;;;;22.24;97.72;97190.25;5018085;28;20228;-66
2021/07/15 09:13:29;;;;;;;1.20;1.00;;;;;;;22.16;98.32;97173.00;5030463;28;20292;-70
2021/07/15 09:15:56;;;;;;;2.43;1.20;;;;;;;22.18;98.60;97179.00;5029658;28;20208;-69
2021/07/15 09:18:23;;;;;;;1.83;1.03;;;;;;;22.25;98.77;97191.97;5001673;28;20222;-67
2021/07/15 09:20:50;;;;;;;2.73;1.00;;;;;;;22.23;98.87;97182.53;5030815;28;20701;-71
2021/07/15 09:23:17;;;;;;;1.67;1.10;;;;;;;22.25;99.15;97181.75;5029665;28;20254;-72
2021/07/15 09:25:43;;;;;;;1.00;1.00;;;;;;;22.26;99.47;97186.00;5032849;28;20201;-66
2021/07/15 09:28:12;;;;;;;3.30;1.20;;;;;;;22.17;99.52;97167.91;5024867;28;20203;-69
2021/07/15 09:30:40;;;;;;;1.20;1.10;;;;;;;22.25;99.30;97184.28;5033148;28;20205;-71
2021/07/15 09:33:10;;;;;;;1.37;0.90;;;;;;;22.27;99.67;97192.00;5034457;28;20319;-69
2021/07/15 09:35:41;;;;;;;1.37;1.20;;;;;;;22.25;99.92;97181.75;5032305;28;20259;-70
2021/07/15 09:38:08;;;;;;;1.03;1.03;;;;;;;22.26;99.93;97183.44;5032373;28;20227;-70
2021/07/15 09:40:41;;;;;;;1.00;1.00;;;;;;;22.25;99.88;97186.84;5035858;28;20241;-65
2021/07/15 09:43:20;;;;;;;1.23;1.10;;;;;;;22.22;100.00;97178.25;5037822;28;20230;-69
2021/07/15 09:45:55;;;;;;;1.80;1.10;;;;;;;21.93;100.00;97121.31;5036974;28;20194;-67
2021/07/15 09:48:23;;;;;;;1.20;1.10;;;;;;;22.25;100.00;97173.19;5018752;28;20203;-68
2021/07/15 09:50:52;;;;;;;1.40;1.30;;;;;;;22.26;100.00;97180.91;5037983;28;20312;-70
2021/07/15 09:53:20;;;;;;;1.10;1.10;;;;;;;22.21;100.00;97169.72;5030024;28;20288;-69
2021/07/15 09:55:47;;;;;;;1.47;1.20;;;;;;;22.18;100.00;97161.97;5021764;28;20263;-72
2021/07/15 09:58:14;;;;;;;1.20;1.10;;;;;;;22.26;100.00;97180.06;5027162;28;20842;-68
2021/07/15 10:00:45;;;;;;;2.40;1.30;;;;;;;22.13;100.00;97158.44;5030780;28;20623;-68
2021/07/15 10:03:13;;;;;;;2.30;1.20;;;;;;;22.19;100.00;97167.94;5026971;28;20197;-70
2021/07/15 10:05:53;;;;;;;1.47;1.37;;;;;;;22.26;100.00;97180.91;5017577;28;20198;-68
2021/07/15 10:08:28;;;;;;;1.23;1.17;;;;;;;21.90;100.00;97122.97;5036156;28;20208;-68
2021/07/15 10:10:55;;;;;;;1.60;1.50;;;;;;;22.19;100.00;97167.94;5028533;28;20715;-69
2021/07/15 10:13:23;;;;;;;1.47;1.37;;;;;;;22.10;100.00;97155.81;5009123;28;20292;-68
2021/07/15 10:15:50;;;;;;;1.27;1.17;;;;;;;22.18;100.00;97174.78;5018426;28;20638;-69
2021/07/15 10:18:50;;;;;;;2.30;1.27;;;;;;;22.27;100.00;97198.00;5010366;28;20668;-69
2021/07/15 10:21:23;;;;;;;1.20;1.20;;;;;;;22.19;100.00;97175.63;5000094;28;20613;-67
2021/07/15 10:23:49;;;;;;;1.30;1.20;;;;;;;22.23;100.00;97192.78;5016379;28;20234;-68
2021/07/15 10:26:26;;;;;;;1.20;1.10;;;;;;;22.27;100.00;97197.13;5015785;28;20209;-67
2021/07/15 10:28:52;;;;;;;1.23;1.17;;;;;;;22.28;100.00;97201.41;5018006;28;20248;-72
2021/07/15 10:31:20;;;;;;;1.33;1.20;;;;;;;22.24;100.00;97197.94;5016445;28;20320;-68
2021/07/15 10:33:46;;;;;;;1.20;1.10;;;;;;;22.08;100.00;97165.16;4991151;28;20297;-67
2021/07/15 10:36:13;;;;;;;1.23;1.20;;;;;;;22.27;100.00;97200.56;5010860;28;20231;-67
2021/07/15 10:38:41;;;;;;;3.37;1.10;;;;;;;22.26;100.00;97190.28;5026871;28;20777;-68
2021/07/15 10:41:09;;;;;;;2.63;1.30;;;;;;;21.99;100.00;97148.75;5005426;28;20292;-70
2021/07/15 10:43:36;;;;;;;1.20;1.10;;;;;;;22.28;100.00;97199.72;5017476;28;20237;-70
2021/07/15 10:46:04;;;;;;;1.13;1.13;;;;;;;22.21;100.00;97187.63;5011772;28;20216;-68
2021/07/15 10:48:32;;;;;;;1.17;1.07;;;;;;;22.27;100.00;97195.44;4999017;28;20209;-69
2021/07/15 10:51:00;;;;;;;1.17;1.10;;;;;;;22.17;100.00;97180.69;5023359;28;20229;-68
2021/07/15 10:53:30;;;;;;;1.27;1.07;;;;;;;22.10;100.00;97170.31;5010473;28;20213;-69
2021/07/15 10:56:03;;;;;;;1.20;1.20;;;;;;;22.22;100.00;97196.16;5008351;28;20224;-73
2021/07/15 10:58:46;;;;;;;1.47;1.03;;;;;;;21.93;100.00;97144.34;5012480;28;20314;-67
2021/07/15 11:01:32;;;;;;;1.20;1.10;;;;;;;22.26;100.00;97208.22;5017545;28;20282;-72
2021/07/15 11:04:09;;;;;;;1.20;1.03;;;;;;;21.94;100.00;97150.34;5019591;28;20564;-69
2021/07/15 11:06:46;;;;;;;2.00;1.33;;;;;;;22.24;100.00;97200.50;5033242;28;20240;-70
2021/07/15 11:09:29;;;;;;;1.43;1.10;;;;;;;22.25;100.00;97206.47;5034061;28;20201;-68
2021/07/15 11:12:03;;;;;;;2.00;1.00;;;;;;;22.25;100.00;97211.56;5026054;28;20264;-66
2021/07/15 11:14:43;;;;;;;1.00;1.00;;;;;;;22.24;100.00;97208.19;5033147;28;20244;-68
2021/07/15 11:17:32;;;;;;;2.30;1.30;;;;;;;22.21;100.00;97207.25;5030957;28;20759;-69
2021/07/15 11:20:00;;;;;;;1.30;1.20;;;;;;;22.16;100.00;97198.59;5023867;28;20334;-70
2021/07/15 11:22:35;;;;;;;1.00;1.00;;;;;;;22.24;100.00;97209.88;5034485;28;20252;-69
2021/07/15 11:25:07;;;;;;;1.10;1.10;;;;;;;22.24;100.00;97212.41;5028273;28;20213;-67
2021/07/15 11:27:47;;;;;;;1.07;1.03;;;;;;;22.20;100.00;97205.53;5035151;28;20225;-67
2021/07/15 11:30:28;;;;;;;0.97;0.97;;;;;;;22.24;100.00;97212.41;5032015;28;20650;-67
2021/07/15 11:32:56;;;;;;;1.20;1.10;;;;;;;22.17;100.00;97203.72;5036495;28;20201;-72
2021/07/15 11:35:22;;;;;;;1.33;1.00;;;;;;;22.25;100.00;97219.25;5033886;28;20243;-72
2021/07/15 11:38:12;;;;;;;1.20;1.10;;;;;;;22.25;100.00;97209.03;5039561;28;20221;-68
2021/07/15 11:40:43;;;;;;;1.63;1.10;;;;;;;22.22;100.00;97208.94;5018373;28;20296;-71